createdAt,value
2018-12-25T00:02:19.505Z,4.43
2018-12-25T00:05:03.428Z,4.37
2018-12-25T00:07:35.015Z,4.77
2018-12-25T00:10:08.900Z,4.30
2018-12-25T00:12:41.917Z,4.13
2018-12-25T00:15:19.293Z,4.00
2018-12-25T00:18:00.312Z,4.50
2018-12-25T00:20:46.651Z,5.13
2018-12-25T00:23:26.998Z,4.23
2018-12-25T00:25:58.578Z,4.70
2018-12-25T00:28:30.939Z,4.40
2018-12-25T00:31:05.541Z,4.03
2018-12-25T00:33:37.423Z,4.87
2018-12-25T00:36:09.499Z,4.27
2018-12-25T00:38:42.045Z,5.23
2018-12-25T00:41:14.373Z,4.73
2018-12-25T00:43:47.583Z,4.73
2018-12-25T00:46:20.666Z,4.23
2018-12-25T00:48:54.615Z,5.10
2018-12-25T00:51:28.846Z,4.47
2018-12-25T00:54:06.156Z,4.67
2018-12-25T00:56:37.998Z,4.63
2018-12-25T00:59:24.414Z,4.50
2018-12-25T01:01:59.493Z,4.50
2018-12-25T01:04:32.935Z,4.10
2018-12-25T01:07:10.881Z,5.07
2018-12-25T01:09:51.118Z,4.93
2018-12-25T01:12:24.724Z,4.93
2018-12-25T01:14:55.868Z,4.70
2018-12-25T01:17:29.203Z,4.73
2018-12-25T01:20:00.819Z,4.77
2018-12-25T01:22:32.548Z,4.20
2018-12-25T01:25:05.726Z,4.80
2018-12-25T01:27:39.905Z,4.87
2018-12-25T01:30:12.166Z,4.97
2018-12-25T01:32:44.867Z,5.43
2018-12-25T01:35:16.794Z,4.83
2018-12-25T01:37:59.630Z,5.40
2018-12-25T01:40:31.428Z,4.50
2018-12-25T01:43:04.220Z,5.10
2018-12-25T01:45:38.514Z,4.30
2018-12-25T01:48:12.469Z,4.10
2018-12-25T01:50:47.075Z,4.47
2018-12-25T01:53:30.907Z,5.63
2018-12-25T01:56:05.663Z,4.67
2018-12-25T01:58:41.133Z,4.80
2018-12-25T02:01:17.458Z,5.27
2018-12-25T02:03:52.120Z,4.47
2018-12-25T02:06:24.965Z,5.43
2018-12-25T02:09:06.159Z,4.97
2018-12-25T02:11:37.798Z,4.77
2018-12-25T02:14:09.584Z,5.00
2018-12-25T02:16:41.343Z,5.10
2018-12-25T02:19:13.128Z,4.60
2018-12-25T02:21:44.953Z,5.53
2018-12-25T02:24:17.060Z,5.43
2018-12-25T02:26:48.443Z,4.30
2018-12-25T02:29:20.126Z,4.60
2018-12-25T02:31:51.727Z,5.47
2018-12-25T02:34:23.172Z,5.33
2018-12-25T02:36:55.014Z,4.90
2018-12-25T02:39:26.389Z,4.70
2018-12-25T02:41:57.352Z,5.27
2018-12-25T02:44:29.001Z,5.70
2018-12-25T02:47:00.785Z,4.73
2018-12-25T02:49:32.086Z,4.90
2018-12-25T02:52:03.608Z,6.00
2018-12-25T02:54:35.015Z,5.53
2018-12-25T02:57:06.813Z,4.93
2018-12-25T03:00:34.033Z,5.93
2018-12-25T03:03:05.567Z,5.43
2018-12-25T03:05:36.927Z,5.70
2018-12-25T03:08:08.864Z,5.20
2018-12-25T03:10:40.668Z,4.40
2018-12-25T03:13:12.138Z,5.17
2018-12-25T03:15:43.814Z,5.43
2018-12-25T03:18:15.638Z,5.40
2018-12-25T03:20:47.419Z,5.53
2018-12-25T03:23:18.664Z,5.40
2018-12-25T03:25:49.954Z,5.97
2018-12-25T03:28:27.928Z,6.47
2018-12-25T03:30:59.713Z,6.20
2018-12-25T03:33:31.295Z,6.50
2018-12-25T03:36:03.076Z,5.87
2018-12-25T03:38:34.554Z,5.43
2018-12-25T03:41:05.534Z,6.63
2018-12-25T03:43:36.776Z,5.80
2018-12-25T03:46:08.021Z,6.00
2018-12-25T03:48:39.567Z,6.23
2018-12-25T03:51:23.420Z,6.47
2018-12-25T03:53:55.179Z,6.33
2018-12-25T03:56:26.858Z,6.03
2018-12-25T03:58:58.045Z,6.60
2018-12-25T04:01:29.972Z,6.90
2018-12-25T04:04:01.808Z,6.70
2018-12-25T04:06:32.844Z,7.17
2018-12-25T04:09:04.622Z,7.27
2018-12-25T04:11:36.105Z,7.30
2018-12-25T04:14:08.006Z,7.60
2018-12-25T04:16:39.528Z,7.47
2018-12-25T04:19:10.919Z,7.50
2018-12-25T04:21:42.485Z,7.20
2018-12-25T04:24:14.364Z,6.43
2018-12-25T04:26:45.498Z,6.60
2018-12-25T04:29:17.337Z,5.93
2018-12-25T04:31:49.123Z,6.87
2018-12-25T04:34:20.952Z,8.73
2018-12-25T04:36:52.265Z,7.43
2018-12-25T04:39:23.797Z,6.80
2018-12-25T04:41:55.224Z,6.93
2018-12-25T04:44:26.547Z,7.17
2018-12-25T04:46:57.826Z,5.70
2018-12-25T04:49:29.878Z,5.87
2018-12-25T04:52:01.626Z,5.97
2018-12-25T04:54:32.854Z,6.40
2018-12-25T04:57:04.097Z,6.07
2018-12-25T04:59:35.720Z,6.27
2018-12-25T05:02:07.246Z,6.40
2018-12-25T05:04:39.074Z,5.47
2018-12-25T05:07:10.925Z,5.90
2018-12-25T05:09:42.684Z,5.90
2018-12-25T05:12:14.029Z,5.40
2018-12-25T05:14:45.699Z,5.53
2018-12-25T05:17:16.759Z,5.50
2018-12-25T05:19:48.604Z,5.67
2018-12-25T05:22:20.243Z,5.63
2018-12-25T05:24:52.107Z,6.17
2018-12-25T05:27:24.067Z,6.27
2018-12-25T05:29:55.587Z,5.97
2018-12-25T05:32:27.072Z,4.97
2018-12-25T05:34:58.972Z,5.27
2018-12-25T05:37:30.819Z,6.00
2018-12-25T05:40:02.968Z,5.60
2018-12-25T05:42:34.479Z,5.77
2018-12-25T05:45:05.128Z,5.67
2018-12-25T05:47:37.113Z,6.30
2018-12-25T05:50:09.595Z,5.57
2018-12-25T05:52:41.247Z,5.13
2018-12-25T05:55:12.756Z,6.20
2018-12-25T05:57:44.449Z,5.57
2018-12-25T06:00:16.101Z,7.43
2018-12-25T06:02:47.884Z,5.77
2018-12-25T06:05:19.736Z,5.40
2018-12-25T06:07:51.090Z,5.53
2018-12-25T06:10:22.961Z,5.70
2018-12-25T06:12:54.849Z,5.90
2018-12-25T06:15:26.675Z,5.07
2018-12-25T06:17:58.518Z,5.87
2018-12-25T06:20:29.544Z,5.97
2018-12-25T06:23:00.889Z,5.80
2018-12-25T06:25:32.670Z,5.57
2018-12-25T06:28:03.945Z,5.63
2018-12-25T06:30:35.664Z,6.40
2018-12-25T06:33:07.164Z,5.20
2018-12-25T06:35:38.528Z,5.67
2018-12-25T06:38:10.391Z,5.73
2018-12-25T06:40:41.647Z,5.93
2018-12-25T06:43:13.359Z,5.17
2018-12-25T06:45:45.283Z,6.07
2018-12-25T06:48:18.063Z,5.17
2018-12-25T06:50:49.571Z,5.50
2018-12-25T06:53:21.276Z,6.17
2018-12-25T06:55:52.869Z,6.00
2018-12-25T06:58:24.724Z,5.80
2018-12-25T07:00:55.701Z,5.63
2018-12-25T07:03:27.499Z,5.43
2018-12-25T07:05:59.003Z,6.40
2018-12-25T07:08:30.808Z,6.90
2018-12-25T07:11:02.609Z,6.00
2018-12-25T07:13:33.883Z,5.93
2018-12-25T07:16:05.774Z,5.70
2018-12-25T07:18:38.004Z,4.47
2018-12-25T07:21:12.288Z,5.77
2018-12-25T07:23:47.783Z,6.27
2018-12-25T07:26:19.257Z,6.20
2018-12-25T07:28:50.797Z,5.60
2018-12-25T07:31:22.357Z,6.10
2018-12-25T07:33:54.299Z,6.20
2018-12-25T07:36:25.938Z,7.83
2018-12-25T07:38:57.696Z,7.20
2018-12-25T07:41:28.909Z,9.03
2018-12-25T07:44:01.610Z,8.17
2018-12-25T07:46:33.128Z,7.23
2018-12-25T07:49:04.707Z,8.33
2018-12-25T07:51:35.886Z,7.27
2018-12-25T07:54:07.496Z,8.93
2018-12-25T07:56:39.452Z,10.63
2018-12-25T07:59:11.075Z,10.33
2018-12-25T08:01:42.913Z,8.67
2018-12-25T08:04:14.800Z,9.10
2018-12-25T08:06:46.448Z,8.70
2018-12-25T08:09:17.928Z,9.77
2018-12-25T08:11:49.803Z,10.97
2018-12-25T08:14:21.505Z,11.43
2018-12-25T08:16:53.407Z,10.17
2018-12-25T08:19:24.595Z,8.53
2018-12-25T08:21:55.642Z,8.30
2018-12-25T08:24:27.396Z,9.10
2018-12-25T08:26:59.034Z,10.97
2018-12-25T08:29:30.748Z,10.90
2018-12-25T08:32:02.272Z,10.60
2018-12-25T08:34:33.701Z,9.97
2018-12-25T08:37:05.666Z,8.10
2018-12-25T08:39:37.233Z,8.07
2018-12-25T08:42:09.125Z,9.03
2018-12-25T08:44:40.687Z,8.60
2018-12-25T08:47:12.994Z,8.57
2018-12-25T08:49:44.361Z,8.60
2018-12-25T08:52:15.754Z,8.57
2018-12-25T08:54:47.417Z,6.70
2018-12-25T08:57:18.954Z,6.90
2018-12-25T08:59:50.022Z,8.43
2018-12-25T09:02:21.805Z,7.10
2018-12-25T09:04:53.369Z,7.07
2018-12-25T09:07:25.234Z,8.00
2018-12-25T09:09:57.125Z,8.37
2018-12-25T09:12:28.642Z,7.30
2018-12-25T09:15:00.504Z,6.50
2018-12-25T09:17:32.151Z,6.63
2018-12-25T09:20:03.679Z,6.60
2018-12-25T09:22:35.643Z,7.50
2018-12-25T09:25:13.938Z,6.93
2018-12-25T09:27:45.836Z,6.93
2018-12-25T09:30:17.216Z,6.40
2018-12-25T09:32:49.188Z,6.90
2018-12-25T09:35:20.440Z,7.03
2018-12-25T09:37:51.353Z,6.93
2018-12-25T09:40:22.886Z,7.47
2018-12-25T09:42:54.730Z,6.80
2018-12-25T09:45:26.139Z,7.57
2018-12-25T09:47:58.114Z,7.23
2018-12-25T09:50:29.495Z,8.00
2018-12-25T09:53:04.739Z,6.53
2018-12-25T09:55:36.644Z,5.57
2018-12-25T09:58:08.101Z,5.70
2018-12-25T10:00:39.114Z,6.20
2018-12-25T10:03:10.716Z,6.43
2018-12-25T10:05:42.118Z,6.53
2018-12-25T10:08:13.887Z,5.70
2018-12-25T10:10:45.216Z,6.07
2018-12-25T10:13:17.121Z,6.33
2018-12-25T10:15:48.457Z,5.67
2018-12-25T10:18:20.357Z,6.13
2018-12-25T10:20:53.345Z,5.80
2018-12-25T10:23:25.240Z,7.27
2018-12-25T10:25:56.538Z,7.97
2018-12-25T10:28:28.089Z,6.50
2018-12-25T10:31:00.277Z,6.57
2018-12-25T10:33:32.562Z,6.50
2018-12-25T10:36:04.327Z,6.77
2018-12-25T10:38:36.005Z,6.13
2018-12-25T10:41:07.576Z,6.30
2018-12-25T10:43:38.844Z,6.63
2018-12-25T10:46:10.532Z,8.17
2018-12-25T10:48:48.643Z,7.50
2018-12-25T10:51:20.273Z,7.60
2018-12-25T10:53:51.811Z,8.10
2018-12-25T10:56:24.252Z,7.73
2018-12-25T10:58:56.208Z,7.43
2018-12-25T11:01:31.160Z,8.27
2018-12-25T11:04:02.768Z,7.47
2018-12-25T11:06:34.588Z,7.57
2018-12-25T11:09:05.875Z,8.27
2018-12-25T11:11:37.437Z,8.00
2018-12-25T11:14:11.070Z,7.60
2018-12-25T11:16:42.379Z,7.57
2018-12-25T11:19:13.733Z,8.57
2018-12-25T11:21:45.380Z,8.00
2018-12-25T11:24:16.965Z,7.80
2018-12-25T11:26:48.721Z,8.23
2018-12-25T11:29:20.795Z,8.00
2018-12-25T11:31:52.812Z,7.10
2018-12-25T11:34:24.104Z,7.60
2018-12-25T11:36:56.018Z,8.10
2018-12-25T11:39:27.423Z,7.77
2018-12-25T11:41:59.261Z,7.03
2018-12-25T11:44:31.112Z,7.77
2018-12-25T11:47:02.343Z,7.40
2018-12-25T11:49:33.278Z,8.13
2018-12-25T11:52:06.290Z,6.07
2018-12-25T11:54:38.232Z,6.43
2018-12-25T11:57:10.083Z,6.20
2018-12-25T11:59:41.880Z,7.73
2018-12-25T12:02:17.178Z,7.40
2018-12-25T12:04:53.600Z,7.37
2018-12-25T12:07:25.214Z,6.87
2018-12-25T12:10:09.792Z,7.07
2018-12-25T12:12:41.380Z,6.73
2018-12-25T12:15:12.414Z,7.13
2018-12-25T12:17:43.710Z,6.97
2018-12-25T12:20:18.635Z,6.73
2018-12-25T12:22:50.042Z,6.27
2018-12-25T12:25:21.890Z,6.50
2018-12-25T12:27:53.937Z,7.20
2018-12-25T12:30:25.076Z,7.00
2018-12-25T12:32:56.851Z,6.30
2018-12-25T12:35:28.097Z,6.90
2018-12-25T12:38:00.247Z,6.37
2018-12-25T12:40:31.898Z,6.97
2018-12-25T12:43:03.516Z,6.73
2018-12-25T12:45:35.232Z,7.30
2018-12-25T12:48:06.234Z,7.53
2018-12-25T12:50:44.584Z,7.77
2018-12-25T12:53:15.817Z,7.50
2018-12-25T12:55:47.955Z,7.83
2018-12-25T12:58:19.711Z,7.00
2018-12-25T13:00:53.323Z,7.87
2018-12-25T13:03:24.552Z,7.57
2018-12-25T13:05:55.772Z,7.70
2018-12-25T13:08:29.424Z,7.70
2018-12-25T13:11:01.283Z,8.27
2018-12-25T13:13:33.999Z,7.63
2018-12-25T13:16:14.371Z,7.87
2018-12-25T13:18:45.754Z,8.10
2018-12-25T13:21:17.653Z,8.27
2018-12-25T13:23:50.387Z,9.87
2018-12-25T13:26:22.310Z,7.87
2018-12-25T13:28:55.111Z,8.33
2018-12-25T13:31:27.185Z,7.23
2018-12-25T13:33:58.684Z,7.20
2018-12-25T13:36:30.482Z,8.10
2018-12-25T13:39:02.272Z,8.10
2018-12-25T13:41:33.417Z,7.90
2018-12-25T13:44:04.354Z,7.30
2018-12-25T13:46:36.130Z,7.80
2018-12-25T13:49:08.033Z,7.00
2018-12-25T13:51:41.430Z,7.80
2018-12-25T13:54:13.577Z,7.53
2018-12-25T13:56:45.320Z,7.93
2018-12-25T13:59:16.871Z,7.13
2018-12-25T14:01:48.065Z,6.73
2018-12-25T14:04:19.730Z,7.00
2018-12-25T14:06:51.203Z,7.40
2018-12-25T14:09:22.544Z,7.33
2018-12-25T14:11:53.841Z,7.23
2018-12-25T14:14:25.476Z,6.27
2018-12-25T14:16:57.039Z,7.67
2018-12-25T14:19:28.210Z,7.07
2018-12-25T14:21:59.721Z,6.77
2018-12-25T14:24:31.556Z,6.13
2018-12-25T14:27:02.293Z,7.27
2018-12-25T14:29:33.442Z,6.17
2018-12-25T14:32:05.481Z,6.20
2018-12-25T14:34:37.377Z,7.17
2018-12-25T14:37:08.866Z,6.97
2018-12-25T14:39:40.162Z,7.10
2018-12-25T14:42:11.572Z,7.33
2018-12-25T14:44:48.184Z,6.17
2018-12-25T14:47:19.987Z,6.77
2018-12-25T14:49:51.529Z,6.93
2018-12-25T14:52:23.166Z,6.90
2018-12-25T14:54:54.907Z,7.33
2018-12-25T14:57:26.043Z,7.17
2018-12-25T14:59:57.544Z,7.33
2018-12-25T15:02:29.561Z,7.07
2018-12-25T15:05:00.703Z,7.67
2018-12-25T15:07:31.954Z,7.60
2018-12-25T15:10:03.653Z,7.37
2018-12-25T15:12:34.800Z,7.13
2018-12-25T15:15:05.733Z,7.43
2018-12-25T15:17:37.417Z,6.77
2018-12-25T15:20:08.589Z,6.73
2018-12-25T15:22:40.728Z,8.00
2018-12-25T15:25:12.013Z,7.10
2018-12-25T15:27:43.820Z,8.00
2018-12-25T15:30:15.377Z,7.13
2018-12-25T15:32:47.023Z,7.50
2018-12-25T15:35:18.858Z,7.37
2018-12-25T15:37:50.609Z,10.67
2018-12-25T15:40:22.179Z,10.90
2018-12-25T15:42:54.060Z,9.53
2018-12-25T15:45:25.979Z,8.23
2018-12-25T15:47:57.256Z,7.53
2018-12-25T15:50:28.545Z,8.30
2018-12-25T15:52:59.979Z,7.03
2018-12-25T15:55:31.486Z,7.60
2018-12-25T15:58:02.798Z,7.40
2018-12-25T16:00:34.323Z,7.77
2018-12-25T16:03:05.744Z,8.70
2018-12-25T16:05:37.767Z,7.87
2018-12-25T16:08:09.692Z,8.50
2018-12-25T16:10:40.977Z,7.90
2018-12-25T16:13:12.890Z,7.13
2018-12-25T16:15:43.990Z,7.53
2018-12-25T16:18:15.885Z,6.40
2018-12-25T16:20:47.507Z,6.27
2018-12-25T16:23:18.597Z,7.10
2018-12-25T16:25:50.299Z,6.77
2018-12-25T16:28:21.918Z,6.90
2018-12-25T16:30:53.383Z,7.03
2018-12-25T16:33:24.850Z,6.67
2018-12-25T16:35:56.483Z,7.00
2018-12-25T16:38:31.564Z,7.50
2018-12-25T16:41:02.958Z,7.80
2018-12-25T16:43:34.759Z,8.30
2018-12-25T16:46:05.988Z,8.93
2018-12-25T16:48:37.548Z,10.57
2018-12-25T16:51:09.119Z,8.73
2018-12-25T16:53:41.975Z,8.60
2018-12-25T16:56:14.018Z,8.50
2018-12-25T16:58:45.762Z,8.60
2018-12-25T17:01:17.564Z,7.80
2018-12-25T17:03:49.520Z,8.53
2018-12-25T17:06:21.133Z,7.77
2018-12-25T17:08:52.090Z,7.07
2018-12-25T17:11:23.374Z,7.97
2018-12-25T17:13:55.174Z,9.33
2018-12-25T17:16:26.895Z,8.17
2018-12-25T17:18:58.717Z,8.60
2018-12-25T17:21:30.056Z,8.67
2018-12-25T17:24:02.526Z,7.73
2018-12-25T17:26:34.119Z,7.30
2018-12-25T17:29:05.360Z,8.10
2018-12-25T17:31:36.379Z,9.50
2018-12-25T17:34:07.755Z,7.83
2018-12-25T17:36:39.273Z,7.47
2018-12-25T17:39:10.719Z,7.50
2018-12-25T17:41:42.612Z,11.93
2018-12-25T17:44:14.259Z,14.93
2018-12-25T17:46:46.175Z,9.97
2018-12-25T17:49:17.673Z,18.50
2018-12-25T17:51:49.136Z,49.83
2018-12-25T17:54:20.915Z,14.97
2018-12-25T17:56:52.726Z,13.40
2018-12-25T17:59:23.992Z,10.07
2018-12-25T18:01:55.835Z,9.30
2018-12-25T18:04:27.106Z,9.93
2018-12-25T18:06:58.791Z,9.57
2018-12-25T18:09:30.675Z,9.07
2018-12-25T18:12:02.189Z,7.83
2018-12-25T18:14:33.992Z,7.27
2018-12-25T18:17:05.380Z,7.07
2018-12-25T18:19:36.784Z,6.93
2018-12-25T18:22:08.316Z,7.23
2018-12-25T18:24:40.035Z,6.77
2018-12-25T18:27:11.813Z,8.13
2018-12-25T18:29:43.116Z,10.50
2018-12-25T18:32:14.847Z,9.23
2018-12-25T18:34:46.764Z,7.00
2018-12-25T18:37:18.265Z,7.63
2018-12-25T18:40:02.182Z,7.50
2018-12-25T18:42:33.935Z,7.70
2018-12-25T18:45:04.610Z,7.53
2018-12-25T18:47:36.179Z,8.23
2018-12-25T18:50:08.918Z,7.37
2018-12-25T18:52:40.523Z,8.80
2018-12-25T18:55:12.079Z,8.20
2018-12-25T18:57:43.774Z,9.13
2018-12-25T19:00:14.990Z,8.20
2018-12-25T19:02:46.687Z,8.47
2018-12-25T19:05:27.646Z,10.60
2018-12-25T19:07:59.480Z,9.53
2018-12-25T19:10:32.721Z,8.50
2018-12-25T19:13:04.545Z,9.20
2018-12-25T19:15:36.604Z,9.33
2018-12-25T19:18:11.312Z,7.97
2018-12-25T19:20:42.816Z,7.60
2018-12-25T19:23:14.304Z,7.17
2018-12-25T19:25:46.126Z,8.67
2018-12-25T19:28:17.679Z,7.73
2018-12-25T19:30:49.010Z,8.23
2018-12-25T19:33:20.999Z,9.20
2018-12-25T19:35:52.725Z,7.37
2018-12-25T19:38:24.299Z,7.33
2018-12-25T19:40:56.164Z,7.60
2018-12-25T19:43:27.998Z,9.13
2018-12-25T19:46:00.056Z,8.50
2018-12-25T19:48:31.723Z,8.23
2018-12-25T19:51:03.403Z,6.87
2018-12-25T19:53:35.421Z,9.23
2018-12-25T19:56:07.107Z,9.53
2018-12-25T19:58:39.296Z,8.27
2018-12-25T20:01:10.587Z,7.50
2018-12-25T20:04:02.622Z,6.73
2018-12-25T20:07:21.382Z,6.87
2018-12-25T20:10:32.963Z,6.73
2018-12-25T20:14:22.991Z,6.70
2018-12-25T20:17:52.687Z,6.37
2018-12-25T20:21:20.454Z,7.73
2018-12-25T20:24:36.471Z,6.97
2018-12-25T20:28:12.835Z,7.13
2018-12-25T20:31:37.310Z,7.10
2018-12-25T20:35:08.262Z,6.90
2018-12-25T20:38:30.088Z,7.50
2018-12-25T20:42:05.262Z,7.83
2018-12-25T20:45:43.470Z,7.70
2018-12-25T20:49:08.044Z,8.53
2018-12-25T20:52:47.219Z,8.07
2018-12-25T20:56:44.960Z,7.67
2018-12-25T21:00:27.247Z,8.97
2018-12-25T21:04:09.204Z,7.77
2018-12-25T21:07:30.154Z,8.03
2018-12-25T21:10:59.060Z,7.87
2018-12-25T21:14:28.693Z,7.77
2018-12-25T21:17:57.705Z,8.77
2018-12-25T21:21:29.052Z,9.27
2018-12-25T21:24:53.881Z,8.70
2018-12-25T21:27:34.299Z,8.33
2018-12-25T21:30:10.541Z,8.87
2018-12-25T21:32:45.614Z,9.20
2018-12-25T21:35:27.232Z,8.57
2018-12-25T21:37:59.468Z,8.23
2018-12-25T21:40:31.452Z,8.53
2018-12-25T21:43:03.391Z,8.30
2018-12-25T21:45:42.613Z,8.77
2018-12-25T21:48:14.201Z,9.00
2018-12-25T21:50:46.392Z,8.00
2018-12-25T21:53:24.566Z,9.47
2018-12-25T21:55:57.550Z,9.33
2018-12-25T21:58:29.872Z,10.23
2018-12-25T22:01:01.535Z,9.17
2018-12-25T22:03:35.242Z,8.93
2018-12-25T22:06:06.937Z,9.73
2018-12-25T22:08:37.669Z,9.07
2018-12-25T22:11:21.930Z,9.40
2018-12-25T22:13:53.157Z,8.73
2018-12-25T22:16:25.531Z,9.70
2018-12-25T22:18:57.404Z,10.30
2018-12-25T22:21:29.051Z,9.73
2018-12-25T22:24:00.016Z,9.27
2018-12-25T22:26:31.835Z,9.13
2018-12-25T22:29:04.021Z,9.33
2018-12-25T22:31:35.882Z,8.97
2018-12-25T22:34:07.153Z,9.40
2018-12-25T22:36:38.566Z,10.07
2018-12-25T22:39:10.502Z,9.37
2018-12-25T22:41:43.973Z,9.13
2018-12-25T22:44:21.854Z,9.67
2018-12-25T22:46:53.588Z,8.53
2018-12-25T22:49:24.938Z,9.17
2018-12-25T22:51:57.616Z,8.80
2018-12-25T22:54:33.059Z,8.60
2018-12-25T22:57:04.994Z,8.73
2018-12-25T22:59:40.841Z,9.80
2018-12-25T23:02:14.493Z,8.37
2018-12-25T23:04:54.000Z,9.60
2018-12-25T23:07:27.353Z,9.10
2018-12-25T23:09:59.980Z,8.73
2018-12-25T23:12:34.277Z,8.90
2018-12-25T23:15:08.194Z,8.23
2018-12-25T23:17:44.254Z,8.53
2018-12-25T23:20:17.918Z,8.27
2018-12-25T23:22:56.971Z,8.20
2018-12-25T23:25:32.950Z,7.67
2018-12-25T23:28:15.664Z,7.93
2018-12-25T23:33:41.724Z,9.17
2018-12-25T23:36:14.342Z,9.10
2018-12-25T23:38:58.421Z,7.90
2018-12-25T23:41:32.205Z,7.17
2018-12-25T23:44:04.746Z,8.13
2018-12-25T23:46:50.398Z,8.60
2018-12-25T23:49:25.355Z,8.10
2018-12-25T23:51:59.569Z,7.83
2018-12-25T23:54:37.871Z,7.23
2018-12-25T23:57:16.338Z,7.73
2018-12-25T23:59:50.708Z,8.23
